ANACAPA ISLAND CA US current weather conditions

sailwx.info

Wind from 278 at 2 knots gusting 5

Air temperature 17.2° C
Dewpoint 17.2° C

Last reported at 2017-Jun-23 18:23 UTC.
Time now 2017-Jun-23 19:17 UTC

Location: N 34°01' W 119°22'.
View on Google Maps.

See reports from other nearby stations

  
Tides and Currents Weather Stations Pressure Air Temp Water Temp Dewpoint Dewpoint Depression Visibility Wind Speed Wind Dir Waves Ship Positions
date/time (UTC)wind fromknots sea level pressurealtimeterstation pressurevisibilityair tempwater tempwave heightnotes
2017-Jun-23 18:23 278 2 gusting 5 17.2
2017-Jun-23 17:23 308 0 gusting 4 17.2
2017-Jun-23 16:23 053 0 gusting 5 16.1
2017-Jun-23 15:23 005 3 gusting 6 16.1
2017-Jun-23 14:23 359 2 gusting 4 15.6
2017-Jun-23 13:23 286 1 gusting 4 15.0
2017-Jun-23 12:23 264 2 gusting 5 15.6
2017-Jun-23 11:23 306 0 gusting 6 15.6
2017-Jun-23 10:23 331 0 gusting 7 15.6
2017-Jun-23 09:23 032 0 gusting 4 16.1
2017-Jun-23 08:23 030 0 gusting 4 16.1
2017-Jun-23 07:23 032 16.1
2017-Jun-23 06:23 050 1 gusting 5 16.1
2017-Jun-23 05:23 041 2 gusting 5 16.1
2017-Jun-23 04:23 341 1 gusting 3 16.1
2017-Jun-23 03:23 292 1 gusting 5 16.7
2017-Jun-23 02:23 019 2 gusting 5 17.2
2017-Jun-23 01:23 280 3 gusting 8 17.2
2017-Jun-23 00:23 288 5 gusting 10 17.2
2017-Jun-22 23:23 288 5 gusting 13 17.8
2017-Jun-22 22:23 279 6 gusting 12 17.2
2017-Jun-22 21:23 271 3 gusting 9 17.8
2017-Jun-22 20:23 350 1 gusting 10 17.2
2017-Jun-22 19:23 022 2 gusting 8 17.2
2017-Jun-22 18:23 061 2 gusting 6 17.2
2017-Jun-22 17:23 142 0 gusting 5 16.7
2017-Jun-22 16:23 355 0 gusting 3 16.1
2017-Jun-22 15:23 336 0 gusting 2 15.6
2017-Jun-22 14:23 308 0 gusting 2 15.0
2017-Jun-22 13:23 111 14.4
2017-Jun-22 12:23 002 3 gusting 7 13.9
2017-Jun-22 11:23 355 5 gusting 9 14.4
2017-Jun-22 10:23 347 7 gusting 13 14.4
2017-Jun-22 09:23 336 8 gusting 13 14.4
2017-Jun-22 08:23 330 7 gusting 14 14.4
2017-Jun-22 07:23 334 10 gusting 15 14.4
2017-Jun-22 06:23 333 8 gusting 13 15.0
2017-Jun-22 05:23 331 7 gusting 11 15.6
2017-Jun-22 04:23 309 5 gusting 9 16.1
2017-Jun-22 03:23 320 4 gusting 10 16.7
2017-Jun-22 02:23 303 6 gusting 13 17.2
2017-Jun-22 01:23 306 7 gusting 15 18.3
2017-Jun-22 00:23 311 9 gusting 14 17.8
2017-Jun-21 23:23 299 6 gusting 12 20.0
2017-Jun-21 22:23 303 6 gusting 10 20.0
2017-Jun-21 21:23 298 6 gusting 15 19.4
2017-Jun-21 20:23 308 10 gusting 16 18.9
2017-Jun-21 19:23 314 8 gusting 13 19.4